createdAt,value
2018-03-31T00:00:34.117Z,64.30
2018-03-31T00:03:00.110Z,64.50
2018-03-31T00:05:26.154Z,64.40
2018-03-31T00:07:52.186Z,64.40
2018-03-31T00:10:18.191Z,63.90
2018-03-31T00:12:44.226Z,64.40
2018-03-31T00:15:10.994Z,63.80
2018-03-31T00:17:38.506Z,64.30
2018-03-31T00:20:04.532Z,64.30
2018-03-31T00:22:30.541Z,65.50
2018-03-31T00:24:56.530Z,65.70
2018-03-31T00:27:23.290Z,65.70
2018-03-31T00:29:49.277Z,65.70
2018-03-31T00:32:16.058Z,64.50
2018-03-31T00:34:42.077Z,65.50
2018-03-31T00:37:08.109Z,65.40
2018-03-31T00:39:34.119Z,65.40
2018-03-31T00:42:00.877Z,65.40
2018-03-31T00:44:26.943Z,65.30
2018-03-31T00:46:53.709Z,65.70
2018-03-31T00:49:20.466Z,65.80
2018-03-31T00:51:46.471Z,65.70
2018-03-31T00:54:12.527Z,65.80
2018-03-31T00:56:38.543Z,65.90
2018-03-31T00:59:04.550Z,66.30
2018-03-31T01:01:30.563Z,66.30
2018-03-31T01:03:56.621Z,66.50
2018-03-31T01:06:22.665Z,66.40
2018-03-31T01:08:48.694Z,66.40
2018-03-31T01:11:14.752Z,66.60
2018-03-31T01:13:40.846Z,66.80
2018-03-31T01:16:06.886Z,66.90
2018-03-31T01:18:32.886Z,66.90
2018-03-31T01:20:58.881Z,67.00
2018-03-31T01:23:24.890Z,67.10
2018-03-31T01:25:50.950Z,67.30
2018-03-31T01:28:17.003Z,67.30
2018-03-31T01:30:43.031Z,67.50
2018-03-31T01:33:10.313Z,68.00
2018-03-31T01:35:36.323Z,68.00
2018-03-31T01:38:02.362Z,68.10
2018-03-31T01:40:28.375Z,68.10
2018-03-31T01:42:54.393Z,68.30
2018-03-31T01:45:20.471Z,68.40
2018-03-31T01:47:46.468Z,68.70
2018-03-31T01:50:12.525Z,68.80
2018-03-31T01:52:38.541Z,69.00
2018-03-31T01:55:04.581Z,69.10
2018-03-31T01:57:31.386Z,70.00
2018-03-31T01:59:58.142Z,69.40
2018-03-31T02:02:24.173Z,69.40
2018-03-31T02:04:50.168Z,69.60
2018-03-31T02:07:16.205Z,69.90
2018-03-31T02:09:42.220Z,70.10
2018-03-31T02:12:08.242Z,70.00
2018-03-31T02:14:34.983Z,70.00
2018-03-31T02:17:01.013Z,69.90
2018-03-31T02:19:27.027Z,70.40
2018-03-31T02:21:53.845Z,71.00
2018-03-31T02:24:19.837Z,70.90
2018-03-31T02:26:46.588Z,71.20
2018-03-31T02:29:12.648Z,71.90
2018-03-31T02:31:38.654Z,71.30
2018-03-31T02:34:04.693Z,71.40
2018-03-31T02:36:30.748Z,71.40
2018-03-31T02:38:56.768Z,71.50
2018-03-31T02:41:22.821Z,71.80
2018-03-31T02:43:48.838Z,71.80
2018-03-31T02:46:15.620Z,71.80
2018-03-31T02:48:41.611Z,71.80
2018-03-31T02:51:08.424Z,72.20
2018-03-31T02:53:34.433Z,72.10
2018-03-31T02:56:00.502Z,72.20
2018-03-31T02:58:27.274Z,72.70
2018-03-31T03:00:53.279Z,72.60
2018-03-31T03:03:19.283Z,73.00
2018-03-31T03:05:46.124Z,73.20
2018-03-31T03:08:12.889Z,73.30
2018-03-31T03:10:38.914Z,73.30
2018-03-31T03:13:04.956Z,73.30
2018-03-31T03:15:31.030Z,73.40
2018-03-31T03:17:57.095Z,73.40
2018-03-31T03:20:23.095Z,73.60
2018-03-31T03:22:49.090Z,73.60
2018-03-31T03:25:15.165Z,73.80
2018-03-31T03:27:41.257Z,74.10
2018-03-31T03:30:07.315Z,74.20
2018-03-31T03:32:33.398Z,74.60
2018-03-31T03:35:00.153Z,74.80
2018-03-31T03:37:26.182Z,74.80
2018-03-31T03:39:52.273Z,74.90
2018-03-31T03:42:18.272Z,75.00
2018-03-31T03:44:44.309Z,75.10
2018-03-31T03:47:10.315Z,75.20
2018-03-31T03:49:36.336Z,75.50
2018-03-31T03:52:02.345Z,75.70
2018-03-31T03:54:28.338Z,75.60
2018-03-31T03:56:54.761Z,75.90
2018-03-31T03:59:20.816Z,76.30
2018-03-31T04:01:46.818Z,76.40
2018-03-31T04:04:12.838Z,76.80
2018-03-31T04:06:38.877Z,76.90
2018-03-31T04:09:04.878Z,77.10
2018-03-31T04:11:31.642Z,77.60
2018-03-31T04:13:57.646Z,77.50
2018-03-31T04:16:23.672Z,77.90
2018-03-31T04:18:49.696Z,78.10
2018-03-31T04:21:15.714Z,78.00
2018-03-31T04:23:41.869Z,77.70
2018-03-31T04:26:07.939Z,77.60
2018-03-31T04:28:34.695Z,78.80
2018-03-31T04:31:01.435Z,78.10
2018-03-31T04:33:28.190Z,78.20
2018-03-31T04:35:54.224Z,78.20
2018-03-31T04:38:20.229Z,78.50
2018-03-31T04:40:47.095Z,78.80
2018-03-31T04:43:13.113Z,78.80
2018-03-31T04:45:39.122Z,79.00
2018-03-31T04:48:05.137Z,79.10
2018-03-31T04:50:31.165Z,79.10
2018-03-31T04:52:57.202Z,79.20
2018-03-31T04:55:23.265Z,79.40
2018-03-31T04:57:49.257Z,79.20
2018-03-31T05:00:16.201Z,79.00
2018-03-31T05:02:42.230Z,78.90
2018-03-31T05:05:08.234Z,78.60
2018-03-31T05:07:34.242Z,78.40
2018-03-31T05:10:00.307Z,78.00
2018-03-31T05:12:26.350Z,77.90
2018-03-31T05:14:52.407Z,78.20
2018-03-31T05:17:18.447Z,78.30
2018-03-31T05:19:44.468Z,78.30
2018-03-31T05:22:10.511Z,78.10
2018-03-31T05:24:36.548Z,78.10
2018-03-31T05:27:03.299Z,77.90
2018-03-31T05:29:29.325Z,77.90
2018-03-31T05:31:55.381Z,77.80
2018-03-31T05:34:22.550Z,77.90
2018-03-31T05:36:48.594Z,77.90
2018-03-31T05:39:14.647Z,78.10
2018-03-31T05:41:40.653Z,78.10
2018-03-31T05:44:06.661Z,78.30
2018-03-31T05:46:32.675Z,78.60
2018-03-31T05:48:58.672Z,78.60
2018-03-31T05:51:24.710Z,78.80
2018-03-31T05:53:50.735Z,79.20
2018-03-31T05:56:16.772Z,79.50
2018-03-31T05:58:42.774Z,79.60
2018-03-31T06:01:08.822Z,79.60
2018-03-31T06:03:35.662Z,79.50
2018-03-31T06:06:01.685Z,79.50
2018-03-31T06:08:27.710Z,79.30
2018-03-31T06:10:53.718Z,79.40
2018-03-31T06:13:19.767Z,79.50
2018-03-31T06:15:46.154Z,79.50
2018-03-31T06:18:12.320Z,79.70
2018-03-31T06:20:38.347Z,80.20
2018-03-31T06:23:04.371Z,80.20
2018-03-31T06:25:30.418Z,79.40
2018-03-31T06:27:56.473Z,79.40
2018-03-31T06:30:23.238Z,79.30
2018-03-31T06:32:49.251Z,79.30
2018-03-31T06:35:15.253Z,79.20
2018-03-31T06:37:41.986Z,78.90
2018-03-31T06:40:08.806Z,78.70
2018-03-31T06:42:34.810Z,78.50
2018-03-31T06:45:00.849Z,78.30
2018-03-31T06:47:26.854Z,78.10
2018-03-31T06:49:52.855Z,77.80
2018-03-31T06:52:18.901Z,77.60
2018-03-31T06:54:44.919Z,77.50
2018-03-31T06:57:10.925Z,77.30
2018-03-31T06:59:36.957Z,77.10
2018-03-31T07:02:02.986Z,76.70
2018-03-31T07:04:28.997Z,76.30
2018-03-31T07:06:55.050Z,75.80
2018-03-31T07:09:21.076Z,75.60
2018-03-31T07:11:47.143Z,75.20
2018-03-31T07:14:13.285Z,74.70
2018-03-31T07:16:39.369Z,74.60
2018-03-31T07:19:06.131Z,73.70
2018-03-31T07:21:32.139Z,73.60
2018-03-31T07:23:58.146Z,73.20
2018-03-31T07:26:24.149Z,72.90
2018-03-31T07:28:50.164Z,72.30
2018-03-31T07:31:16.190Z,71.40
2018-03-31T07:33:42.212Z,68.60
2018-03-31T07:36:08.246Z,66.50
2018-03-31T07:38:34.255Z,63.40
2018-03-31T07:41:00.274Z,60.30
2018-03-31T07:43:26.259Z,59.20
2018-03-31T07:45:53.035Z,57.70
2018-03-31T07:48:19.058Z,57.70
2018-03-31T07:50:45.086Z,56.50
2018-03-31T07:53:11.082Z,56.40
2018-03-31T07:55:37.094Z,55.40
2018-03-31T07:58:03.101Z,54.90
2018-03-31T08:00:29.122Z,54.30
2018-03-31T08:02:55.878Z,52.60
2018-03-31T08:05:21.902Z,52.40
2018-03-31T08:07:48.662Z,49.90
2018-03-31T08:10:14.682Z,49.80
2018-03-31T08:12:40.696Z,48.30
2018-03-31T08:15:06.738Z,46.60
2018-03-31T08:17:32.773Z,46.20
2018-03-31T08:19:58.812Z,44.40
2018-03-31T08:22:24.829Z,41.90
2018-03-31T08:24:50.868Z,40.20
2018-03-31T08:27:18.404Z,37.10
2018-03-31T08:29:44.412Z,37.10
2018-03-31T08:32:10.421Z,36.20
2018-03-31T08:34:36.441Z,34.30
2018-03-31T08:37:02.457Z,33.60
2018-03-31T08:39:28.445Z,33.20
2018-03-31T08:41:55.227Z,31.30
2018-03-31T08:44:21.225Z,31.20
2018-03-31T08:46:47.977Z,29.20
2018-03-31T08:49:13.978Z,29.10
2018-03-31T08:51:40.714Z,27.00
2018-03-31T08:54:06.707Z,26.70
2018-03-31T08:56:32.805Z,25.60
2018-03-31T08:58:58.825Z,26.10
2018-03-31T09:01:24.862Z,26.30
2018-03-31T09:03:50.899Z,26.00
2018-03-31T09:06:16.990Z,25.70
2018-03-31T09:08:42.994Z,25.10
2018-03-31T09:11:09.023Z,24.70
2018-03-31T09:13:35.065Z,24.30
2018-03-31T09:16:01.098Z,24.00
2018-03-31T09:18:27.141Z,23.40
2018-03-31T09:20:53.161Z,22.80
2018-03-31T09:23:19.179Z,22.20
2018-03-31T09:25:45.202Z,22.00
2018-03-31T09:28:11.948Z,21.20
2018-03-31T09:30:37.973Z,21.10
2018-03-31T09:33:04.049Z,22.00
2018-03-31T09:35:30.070Z,21.90
2018-03-31T09:37:56.090Z,22.10
2018-03-31T09:40:22.138Z,23.30
2018-03-31T09:42:48.174Z,24.30
2018-03-31T09:45:14.211Z,25.40
2018-03-31T09:47:40.216Z,25.70
2018-03-31T09:50:06.246Z,26.20
2018-03-31T09:52:33.515Z,26.90
2018-03-31T09:54:59.537Z,26.80
2018-03-31T09:57:25.558Z,27.40
2018-03-31T09:59:51.559Z,27.60
2018-03-31T10:02:17.671Z,28.00
2018-03-31T10:04:44.029Z,28.00
2018-03-31T10:07:10.029Z,27.90
2018-03-31T10:09:38.116Z,28.30
2018-03-31T10:12:04.109Z,28.20
2018-03-31T10:14:30.175Z,28.70
2018-03-31T10:16:56.194Z,28.60
2018-03-31T10:19:22.296Z,28.50
2018-03-31T10:21:48.331Z,29.00
2018-03-31T10:24:14.357Z,28.70
2018-03-31T10:26:40.362Z,28.80
2018-03-31T10:29:06.390Z,29.10
2018-03-31T10:31:32.417Z,29.90
2018-03-31T10:33:58.502Z,30.00
2018-03-31T10:36:24.580Z,30.00
2018-03-31T10:38:50.556Z,30.50
2018-03-31T10:41:16.582Z,30.90
2018-03-31T10:43:42.605Z,31.00
2018-03-31T10:46:08.639Z,30.80
2018-03-31T10:48:34.656Z,30.80
2018-03-31T10:51:00.708Z,31.40
2018-03-31T10:53:26.775Z,31.40
2018-03-31T10:55:53.547Z,31.40
2018-03-31T10:58:19.588Z,31.40
2018-03-31T11:00:45.690Z,31.90
2018-03-31T11:03:11.716Z,31.20
2018-03-31T11:05:37.720Z,30.90
2018-03-31T11:08:03.717Z,30.70
2018-03-31T11:10:29.741Z,30.70
2018-03-31T11:12:55.771Z,30.40
2018-03-31T11:15:22.554Z,31.10
2018-03-31T11:17:48.584Z,31.10
2018-03-31T11:20:14.627Z,30.70
2018-03-31T11:22:40.650Z,30.60
2018-03-31T11:25:06.645Z,30.10
2018-03-31T11:27:32.674Z,30.30
2018-03-31T11:29:58.718Z,30.80
2018-03-31T11:32:24.734Z,30.90
2018-03-31T11:34:50.762Z,31.40
2018-03-31T11:37:16.782Z,31.50
2018-03-31T11:39:42.782Z,31.50
2018-03-31T11:42:08.792Z,31.90
2018-03-31T11:44:34.787Z,31.40
2018-03-31T11:47:00.836Z,31.80
2018-03-31T11:49:26.872Z,31.60
2018-03-31T11:51:52.905Z,30.90
2018-03-31T11:54:18.935Z,30.50
2018-03-31T11:56:44.942Z,30.30
2018-03-31T11:59:10.972Z,30.50
2018-03-31T12:01:37.483Z,30.60
2018-03-31T12:04:03.566Z,31.20
2018-03-31T12:06:29.577Z,31.80
2018-03-31T12:08:55.607Z,31.70
2018-03-31T12:11:21.628Z,31.70
2018-03-31T12:13:47.646Z,31.50
2018-03-31T12:16:13.650Z,31.70
2018-03-31T12:18:39.653Z,32.20
2018-03-31T12:21:05.728Z,32.00
2018-03-31T12:23:32.513Z,32.40
2018-03-31T12:25:58.533Z,32.40
2018-03-31T12:28:24.549Z,32.60
2018-03-31T12:30:51.293Z,33.70
2018-03-31T12:33:17.310Z,33.70
2018-03-31T12:35:44.066Z,33.40
2018-03-31T12:38:10.120Z,33.40
2018-03-31T12:40:36.125Z,33.40
2018-03-31T12:43:02.162Z,33.40
2018-03-31T12:45:28.918Z,33.40
2018-03-31T12:47:55.701Z,33.50
2018-03-31T12:50:21.733Z,32.90
2018-03-31T12:52:47.765Z,33.30
2018-03-31T12:55:13.837Z,33.30
2018-03-31T12:57:39.916Z,33.30
2018-03-31T13:00:05.958Z,33.50
2018-03-31T13:02:31.982Z,33.60
2018-03-31T13:04:58.062Z,33.90
2018-03-31T13:07:24.093Z,33.80
2018-03-31T13:09:50.144Z,33.90
2018-03-31T13:12:16.213Z,34.00
2018-03-31T13:14:43.020Z,34.10
2018-03-31T13:17:09.050Z,34.00
2018-03-31T13:19:35.050Z,34.40
2018-03-31T13:22:01.063Z,34.60
2018-03-31T13:24:27.131Z,35.00
2018-03-31T13:26:53.913Z,35.00
2018-03-31T13:29:20.003Z,34.80
2018-03-31T13:31:46.003Z,35.20
2018-03-31T13:34:12.029Z,35.80
2018-03-31T13:36:38.030Z,36.20
2018-03-31T13:39:04.054Z,36.10
2018-03-31T13:41:30.078Z,35.50
2018-03-31T13:43:56.072Z,35.40
2018-03-31T13:46:22.124Z,35.50
2018-03-31T13:48:48.162Z,35.30
2018-03-31T13:51:14.194Z,34.90
2018-03-31T13:53:40.232Z,35.30
2018-03-31T13:56:06.242Z,35.00
2018-03-31T13:58:32.248Z,35.20
2018-03-31T14:00:58.254Z,35.60
2018-03-31T14:03:24.282Z,35.30
2018-03-31T14:05:51.171Z,34.90
2018-03-31T14:08:17.982Z,33.90
2018-03-31T14:10:44.022Z,33.90
2018-03-31T14:13:10.028Z,33.70
2018-03-31T14:15:36.141Z,34.20
2018-03-31T14:18:02.835Z,34.70
2018-03-31T14:20:29.599Z,35.20
2018-03-31T14:22:55.642Z,35.20
2018-03-31T14:25:21.659Z,35.70
2018-03-31T14:27:47.683Z,35.70
2018-03-31T14:30:13.714Z,35.20
2018-03-31T14:32:39.733Z,34.50
2018-03-31T14:35:05.737Z,34.20
2018-03-31T14:37:31.919Z,34.00
2018-03-31T14:39:58.028Z,34.10
2018-03-31T14:42:24.114Z,34.20
2018-03-31T14:44:51.064Z,34.30
2018-03-31T14:47:17.129Z,34.20
2018-03-31T14:49:43.126Z,34.20
2018-03-31T14:52:09.142Z,34.20
2018-03-31T14:54:35.193Z,34.30
2018-03-31T14:57:01.218Z,34.50
2018-03-31T14:59:27.266Z,35.50
2018-03-31T15:01:54.078Z,35.10
2018-03-31T15:04:21.713Z,34.90
2018-03-31T15:06:47.753Z,34.90
2018-03-31T15:09:13.808Z,35.10
2018-03-31T15:11:39.815Z,34.90
2018-03-31T15:14:05.841Z,35.00
2018-03-31T15:16:31.868Z,35.10
2018-03-31T15:18:57.963Z,35.60
2018-03-31T15:21:24.714Z,36.40
2018-03-31T15:23:50.765Z,36.40
2018-03-31T15:26:16.834Z,36.80
2018-03-31T15:28:42.849Z,36.60
2018-03-31T15:31:08.893Z,36.50
2018-03-31T15:33:34.926Z,36.30
2018-03-31T15:36:00.994Z,36.60
2018-03-31T15:38:27.034Z,36.90
2018-03-31T15:40:53.063Z,37.00
2018-03-31T15:43:19.060Z,37.00
2018-03-31T15:45:45.851Z,37.10
2018-03-31T15:48:11.855Z,37.10
2018-03-31T15:50:37.977Z,37.40
2018-03-31T15:53:04.961Z,37.50
2018-03-31T15:55:30.994Z,37.50
2018-03-31T15:57:57.040Z,37.70
2018-03-31T16:00:23.766Z,37.50
2018-03-31T16:02:49.789Z,37.50
2018-03-31T16:05:15.800Z,37.40
2018-03-31T16:07:41.836Z,38.10
2018-03-31T16:10:07.869Z,37.50
2018-03-31T16:12:34.614Z,37.80
2018-03-31T16:15:01.370Z,38.00
2018-03-31T16:17:27.404Z,37.90
2018-03-31T16:19:53.432Z,38.20
2018-03-31T16:22:19.432Z,38.40
2018-03-31T16:24:45.520Z,38.30
2018-03-31T16:27:11.560Z,38.30
2018-03-31T16:29:38.320Z,38.50
2018-03-31T16:32:05.071Z,38.60
2018-03-31T16:34:31.076Z,38.60
2018-03-31T16:36:57.833Z,39.00
2018-03-31T16:39:23.824Z,38.90
2018-03-31T16:41:49.825Z,39.10
2018-03-31T16:44:15.809Z,38.90
2018-03-31T16:46:41.855Z,39.00
2018-03-31T16:49:07.871Z,39.20
2018-03-31T16:51:33.893Z,39.20
2018-03-31T16:53:59.903Z,39.20
2018-03-31T16:56:25.925Z,39.40
2018-03-31T16:58:51.949Z,39.60
2018-03-31T17:01:17.971Z,39.90
2018-03-31T17:03:44.105Z,40.00
2018-03-31T17:06:10.133Z,40.20
2018-03-31T17:08:36.148Z,40.40
2018-03-31T17:11:02.208Z,40.60
2018-03-31T17:13:28.185Z,40.40
2018-03-31T17:15:54.246Z,40.60
2018-03-31T17:18:20.277Z,41.50
2018-03-31T17:20:46.293Z,41.00
2018-03-31T17:23:12.319Z,40.80
2018-03-31T17:25:38.381Z,41.10
2018-03-31T17:28:04.422Z,41.30
2018-03-31T17:30:30.455Z,41.30
2018-03-31T17:32:56.490Z,41.40
2018-03-31T17:35:22.558Z,41.70
2018-03-31T17:37:49.312Z,43.20
2018-03-31T17:40:15.335Z,43.20
2018-03-31T17:42:42.106Z,44.10
2018-03-31T17:45:08.292Z,44.10
2018-03-31T17:47:34.401Z,44.30
2018-03-31T17:50:00.406Z,44.50
2018-03-31T17:52:26.426Z,44.90
2018-03-31T17:54:52.476Z,44.80
2018-03-31T17:57:19.226Z,45.10
2018-03-31T17:59:46.002Z,45.60
2018-03-31T18:02:12.050Z,45.60
2018-03-31T18:04:38.791Z,46.00
2018-03-31T18:07:04.835Z,46.00
2018-03-31T18:09:31.821Z,46.20
2018-03-31T18:11:58.218Z,46.30
2018-03-31T18:14:24.978Z,46.50
2018-03-31T18:16:51.738Z,47.10
2018-03-31T18:19:17.763Z,47.00
2018-03-31T18:21:43.835Z,47.00
2018-03-31T18:24:09.841Z,47.10
2018-03-31T18:26:36.644Z,47.40
2018-03-31T18:29:02.672Z,47.30
2018-03-31T18:31:28.711Z,47.70
2018-03-31T18:33:54.808Z,47.80
2018-03-31T18:36:20.772Z,47.40
2018-03-31T18:38:46.837Z,47.20
2018-03-31T18:41:12.894Z,47.10
2018-03-31T18:43:38.954Z,47.50
2018-03-31T18:46:05.230Z,47.60
2018-03-31T18:48:31.317Z,47.60
2018-03-31T18:50:57.393Z,47.80
2018-03-31T18:53:25.097Z,48.00
2018-03-31T18:55:51.098Z,48.80
2018-03-31T18:58:17.140Z,49.40
2018-03-31T19:00:43.179Z,49.90
2018-03-31T19:03:09.199Z,50.30
2018-03-31T19:05:35.237Z,50.30
2018-03-31T19:08:01.297Z,51.10
2018-03-31T19:10:27.336Z,51.80
2018-03-31T19:12:53.385Z,52.20
2018-03-31T19:15:19.397Z,53.80
2018-03-31T19:17:45.506Z,54.50
2018-03-31T19:20:16.522Z,55.00
2018-03-31T19:22:42.544Z,56.20
2018-03-31T19:25:14.551Z,57.30
2018-03-31T19:27:40.585Z,57.30
2018-03-31T19:30:07.815Z,57.30
2018-03-31T19:32:33.847Z,57.90
2018-03-31T19:34:59.908Z,57.40
2018-03-31T19:37:25.932Z,57.70
2018-03-31T19:39:52.053Z,57.80
2018-03-31T19:42:18.046Z,58.10
2018-03-31T19:44:44.070Z,58.30
2018-03-31T19:47:10.092Z,58.50
2018-03-31T19:49:36.857Z,59.40
2018-03-31T19:52:02.865Z,59.40
2018-03-31T19:54:28.895Z,59.50
2018-03-31T19:56:54.908Z,60.00
2018-03-31T19:59:20.944Z,61.20
2018-03-31T20:01:47.734Z,61.10
2018-03-31T20:04:18.606Z,61.10
2018-03-31T20:06:44.819Z,61.20
2018-03-31T20:09:10.913Z,61.40
2018-03-31T20:11:36.924Z,62.30
2018-03-31T20:14:02.943Z,61.90
2018-03-31T20:16:28.979Z,62.20
2018-03-31T20:18:54.994Z,62.30
2018-03-31T20:21:22.585Z,63.10
2018-03-31T20:23:48.649Z,63.00
2018-03-31T20:26:15.734Z,64.30
2018-03-31T20:28:41.742Z,64.30
2018-03-31T20:31:07.762Z,65.10
2018-03-31T20:33:34.581Z,66.40
2018-03-31T20:36:00.631Z,66.30
2018-03-31T20:38:26.701Z,67.00
2018-03-31T20:40:52.753Z,67.40
2018-03-31T20:43:20.079Z,66.90
2018-03-31T20:45:46.143Z,66.80
2018-03-31T20:48:12.949Z,67.20
2018-03-31T20:50:38.962Z,67.10
2018-03-31T20:53:04.992Z,67.40
2018-03-31T20:55:31.008Z,67.60
2018-03-31T20:57:57.035Z,67.90
2018-03-31T21:00:23.128Z,68.50
2018-03-31T21:02:49.137Z,69.00
2018-03-31T21:05:15.209Z,69.60
2018-03-31T21:07:41.219Z,70.40
2018-03-31T21:10:07.245Z,71.10
2018-03-31T21:12:33.275Z,71.70
2018-03-31T21:14:59.323Z,72.30
2018-03-31T21:17:25.341Z,74.00
2018-03-31T21:19:52.107Z,74.60
2018-03-31T21:22:18.869Z,74.60
2018-03-31T21:24:44.889Z,74.60
2018-03-31T21:27:10.880Z,74.20
2018-03-31T21:29:37.693Z,73.00
2018-03-31T21:32:03.720Z,73.00
2018-03-31T21:34:29.782Z,72.40
2018-03-31T21:36:55.815Z,71.80
2018-03-31T21:39:21.851Z,71.60
2018-03-31T21:41:47.912Z,71.50
2018-03-31T21:44:13.929Z,70.30
2018-03-31T21:46:39.933Z,70.30
2018-03-31T21:49:05.995Z,70.50
2018-03-31T21:51:32.835Z,70.60
2018-03-31T21:53:59.612Z,70.60
2018-03-31T21:56:25.723Z,70.60
2018-03-31T21:58:52.466Z,70.60
2018-03-31T22:01:18.474Z,70.50
2018-03-31T22:03:44.495Z,70.50
2018-03-31T22:06:11.318Z,71.60
2018-03-31T22:08:37.330Z,71.60
2018-03-31T22:11:03.378Z,70.60
2018-03-31T22:13:35.357Z,70.60
2018-03-31T22:16:02.141Z,70.40
2018-03-31T22:18:28.131Z,70.40
2018-03-31T22:20:54.181Z,70.30
2018-03-31T22:23:20.177Z,70.20
2018-03-31T22:25:46.250Z,69.80
2018-03-31T22:28:12.270Z,69.70
2018-03-31T22:30:38.324Z,69.60
2018-03-31T22:33:04.334Z,70.90
2018-03-31T22:35:30.344Z,71.10
2018-03-31T22:37:56.372Z,71.40
2018-03-31T22:40:22.380Z,71.50
2018-03-31T22:42:48.420Z,70.50
2018-03-31T22:45:14.523Z,71.60
2018-03-31T22:47:40.552Z,71.60
2018-03-31T22:50:06.599Z,71.60
2018-03-31T22:52:32.639Z,72.20
2018-03-31T22:54:58.721Z,72.20
2018-03-31T22:57:24.749Z,72.30
2018-03-31T22:59:50.767Z,72.40
2018-03-31T23:02:16.816Z,72.40
2018-03-31T23:04:42.848Z,72.70
2018-03-31T23:07:08.863Z,72.90
2018-03-31T23:09:34.882Z,73.00
2018-03-31T23:12:00.914Z,72.90
2018-03-31T23:14:27.660Z,73.00
2018-03-31T23:16:54.442Z,73.00
2018-03-31T23:19:20.482Z,72.90
2018-03-31T23:21:46.665Z,72.80
2018-03-31T23:24:13.670Z,72.80
2018-03-31T23:26:39.686Z,72.80
2018-03-31T23:29:05.709Z,72.80
2018-03-31T23:31:31.729Z,72.80
2018-03-31T23:33:57.753Z,72.80
2018-03-31T23:36:23.757Z,72.80
2018-03-31T23:38:49.765Z,72.70
2018-03-31T23:41:15.803Z,72.80
2018-03-31T23:43:41.820Z,72.90
2018-03-31T23:46:07.841Z,73.00
2018-03-31T23:48:33.859Z,73.20
2018-03-31T23:50:59.882Z,73.50
2018-03-31T23:53:25.894Z,73.60
2018-03-31T23:55:52.098Z,74.00
2018-03-31T23:58:18.849Z,74.20
